sensor_id;sensor_type;location;lat;lon;timestamp;P1;durP1;ratioP1;P2;durP2;ratioP2
15498;SDS011;7851;52.260;6.030;2023-04-28T00:03:23;4.9;;;4.2;;
15498;SDS011;7851;52.260;6.030;2023-04-28T00:03:23;6.5;;;3.7;;
15498;SDS011;7851;52.260;6.030;2023-04-28T00:03:23;4.7;;;3.6;;
15498;SDS011;7851;52.260;6.030;2023-04-28T00:03:23;4.7;;;3.7;;
15498;SDS011;7851;52.260;6.030;2023-04-28T00:04:09;8.2;;;3.5;;
15498;SDS011;7851;52.260;6.030;2023-04-28T00:05:09;4.9;;;3.7;;
15498;SDS011;7851;52.260;6.030;2023-04-28T00:06:09;5.5;;;4.1;;
15498;SDS011;7851;52.260;6.030;2023-04-28T00:07:09;6.4;;;3.8;;
15498;SDS011;7851;52.260;6.030;2023-04-28T00:08:09;4.3;;;3.5;;
15498;SDS011;7851;52.260;6.030;2023-04-28T00:09:09;6.4;;;3.4;;
15498;SDS011;7851;52.260;6.030;2023-04-28T00:10:09;4.5;;;3.8;;
15498;SDS011;7851;52.260;6.030;2023-04-28T00:11:09;4;;;3.6;;
15498;SDS011;7851;52.260;6.030;2023-04-28T00:12:09;5.4;;;3.5;;
15498;SDS011;7851;52.260;6.030;2023-04-28T00:13:09;4.8;;;3.6;;
15498;SDS011;7851;52.260;6.030;2023-04-28T00:14:09;5.9;;;3.9;;
15498;SDS011;7851;52.260;6.030;2023-04-28T00:15:09;5.6;;;3.6;;
15498;SDS011;7851;52.260;6.030;2023-04-28T00:16:09;4.2;;;3.7;;
15498;SDS011;7851;52.260;6.030;2023-04-28T00:17:09;5.7;;;4;;
15498;SDS011;7851;52.260;6.030;2023-04-28T00:18:09;5.1;;;4.4;;
15498;SDS011;7851;52.260;6.030;2023-04-28T00:19:09;4.9;;;4;;
15498;SDS011;7851;52.260;6.030;2023-04-28T00:20:10;4.1;;;3.5;;
15498;SDS011;7851;52.260;6.030;2023-04-28T00:21:09;4.9;;;3.8;;
15498;SDS011;7851;52.260;6.030;2023-04-28T00:22:09;5.1;;;4.3;;
15498;SDS011;7851;52.260;6.030;2023-04-28T00:23:09;6.3;;;4.1;;
15498;SDS011;7851;52.260;6.030;2023-04-28T00:24:09;4;;;3.7;;
15498;SDS011;7851;52.260;6.030;2023-04-28T00:25:09;6.4;;;3.7;;
15498;SDS011;7851;52.260;6.030;2023-04-28T00:26:09;6.7;;;4;;
15498;SDS011;7851;52.260;6.030;2023-04-28T00:27:09;4.7;;;3.8;;
15498;SDS011;7851;52.260;6.030;2023-04-28T00:28:09;5;;;3.9;;
15498;SDS011;7851;52.260;6.030;2023-04-28T00:29:09;5.6;;;4;;
15498;SDS011;7851;52.260;6.030;2023-04-28T00:30:10;11.2;;;4.4;;
15498;SDS011;7851;52.260;6.030;2023-04-28T00:31:09;5.3;;;3.8;;
15498;SDS011;7851;52.260;6.030;2023-04-28T00:32:09;6.4;;;4.2;;
15498;SDS011;7851;52.260;6.030;2023-04-28T00:33:09;6.4;;;4.4;;
15498;SDS011;7851;52.260;6.030;2023-04-28T00:34:09;4.9;;;4.3;;
15498;SDS011;7851;52.260;6.030;2023-04-28T00:35:09;4.3;;;3.9;;
15498;SDS011;7851;52.260;6.030;2023-04-28T00:36:09;4.5;;;3.8;;
15498;SDS011;7851;52.260;6.030;2023-04-28T00:37:09;6.2;;;3.8;;
15498;SDS011;7851;52.260;6.030;2023-04-28T00:38:09;4.7;;;4.3;;
15498;SDS011;7851;52.260;6.030;2023-04-28T00:39:09;6.4;;;4.5;;
15498;SDS011;7851;52.260;6.030;2023-04-28T00:40:10;4.1;;;3.7;;
15498;SDS011;7851;52.260;6.030;2023-04-28T00:41:09;5.2;;;4.3;;
15498;SDS011;7851;52.260;6.030;2023-04-28T00:42:09;5;;;3.9;;
15498;SDS011;7851;52.260;6.030;2023-04-28T00:43:09;3.9;;;3.5;;
15498;SDS011;7851;52.260;6.030;2023-04-28T00:44:09;4.4;;;4;;
15498;SDS011;7851;52.260;6.030;2023-04-28T00:45:09;4.8;;;3.7;;
15498;SDS011;7851;52.260;6.030;2023-04-28T00:46:10;4.4;;;3.6;;
15498;SDS011;7851;52.260;6.030;2023-04-28T00:47:09;4.7;;;3.6;;
15498;SDS011;7851;52.260;6.030;2023-04-28T00:48:09;4.3;;;3.9;;
15498;SDS011;7851;52.260;6.030;2023-04-28T00:49:09;5.9;;;3.8;;
15498;SDS011;7851;52.260;6.030;2023-04-28T00:50:09;4.6;;;4.1;;
15498;SDS011;7851;52.260;6.030;2023-04-28T00:51:09;5.7;;;3.9;;
15498;SDS011;7851;52.260;6.030;2023-04-28T00:52:09;4.3;;;3.9;;
15498;SDS011;7851;52.260;6.030;2023-04-28T00:53:09;5.3;;;3.8;;
15498;SDS011;7851;52.260;6.030;2023-04-28T00:54:11;4.7;;;4.3;;
15498;SDS011;7851;52.260;6.030;2023-04-28T00:55:09;4.6;;;3.7;;
15498;SDS011;7851;52.260;6.030;2023-04-28T00:56:10;5.2;;;3.8;;
15498;SDS011;7851;52.260;6.030;2023-04-28T00:57:09;5;;;3.9;;
15498;SDS011;7851;52.260;6.030;2023-04-28T00:58:09;5.5;;;3.8;;
15498;SDS011;7851;52.260;6.030;2023-04-28T00:59:09;6;;;4.1;;
15498;SDS011;7851;52.260;6.030;2023-04-28T01:00:10;5.4;;;3.9;;
15498;SDS011;7851;52.260;6.030;2023-04-28T01:01:09;6.1;;;3.9;;
15498;SDS011;7851;52.260;6.030;2023-04-28T01:02:09;4.1;;;3.7;;
15498;SDS011;7851;52.260;6.030;2023-04-28T01:03:09;3.9;;;3.6;;
15498;SDS011;7851;52.260;6.030;2023-04-28T01:04:09;4.1;;;3.7;;
15498;SDS011;7851;52.260;6.030;2023-04-28T01:05:09;5.4;;;3.9;;
15498;SDS011;7851;52.260;6.030;2023-04-28T01:06:09;4.5;;;4.1;;
15498;SDS011;7851;52.260;6.030;2023-04-28T01:07:09;7.5;;;3.8;;
15498;SDS011;7851;52.260;6.030;2023-04-28T01:08:09;4.1;;;3.6;;
15498;SDS011;7851;52.260;6.030;2023-04-28T01:09:09;4.3;;;3.6;;
15498;SDS011;7851;52.260;6.030;2023-04-28T01:10:09;4.4;;;3.8;;
15498;SDS011;7851;52.260;6.030;2023-04-28T01:11:09;4.3;;;3.9;;
15498;SDS011;7851;52.260;6.030;2023-04-28T01:12:09;4.4;;;4;;
15498;SDS011;7851;52.260;6.030;2023-04-28T01:13:09;5.2;;;4.1;;
15498;SDS011;7851;52.260;6.030;2023-04-28T01:14:09;5.2;;;3.9;;
15498;SDS011;7851;52.260;6.030;2023-04-28T01:15:11;4.4;;;4;;
15498;SDS011;7851;52.260;6.030;2023-04-28T01:16:09;4.7;;;3.9;;
15498;SDS011;7851;52.260;6.030;2023-04-28T01:17:09;5;;;4.1;;
15498;SDS011;7851;52.260;6.030;2023-04-28T01:18:09;5.7;;;4.1;;
15498;SDS011;7851;52.260;6.030;2023-04-28T01:19:11;5.4;;;4.3;;
15498;SDS011;7851;52.260;6.030;2023-04-28T01:20:09;5.2;;;4.1;;
15498;SDS011;7851;52.260;6.030;2023-04-28T01:21:09;4.4;;;4;;
15498;SDS011;7851;52.260;6.030;2023-04-28T01:22:09;6;;;4.2;;
15498;SDS011;7851;52.260;6.030;2023-04-28T01:23:10;4.3;;;3.9;;
15498;SDS011;7851;52.260;6.030;2023-04-28T01:24:09;4.9;;;4.3;;
15498;SDS011;7851;52.260;6.030;2023-04-28T01:25:09;4.7;;;4.2;;
15498;SDS011;7851;52.260;6.030;2023-04-28T01:26:09;4.4;;;3.8;;
15498;SDS011;7851;52.260;6.030;2023-04-28T01:27:09;7.6;;;4.5;;
15498;SDS011;7851;52.260;6.030;2023-04-28T01:28:10;13.4;;;4.5;;
15498;SDS011;7851;52.260;6.030;2023-04-28T01:29:09;4.4;;;4;;
15498;SDS011;7851;52.260;6.030;2023-04-28T01:30:09;5.6;;;4.2;;
15498;SDS011;7851;52.260;6.030;2023-04-28T01:31:09;6.1;;;4;;
15498;SDS011;7851;52.260;6.030;2023-04-28T01:32:09;5.2;;;4;;
15498;SDS011;7851;52.260;6.030;2023-04-28T01:33:09;5.3;;;4.2;;
15498;SDS011;7851;52.260;6.030;2023-04-28T01:34:09;5.1;;;4;;
15498;SDS011;7851;52.260;6.030;2023-04-28T01:35:09;5.8;;;4.5;;
15498;SDS011;7851;52.260;6.030;2023-04-28T01:36:09;5.4;;;4.4;;
15498;SDS011;7851;52.260;6.030;2023-04-28T01:37:09;5.1;;;4.3;;
15498;SDS011;7851;52.260;6.030;2023-04-28T01:38:09;4.8;;;4.3;;
15498;SDS011;7851;52.260;6.030;2023-04-28T01:39:09;6.2;;;4.1;;
15498;SDS011;7851;52.260;6.030;2023-04-28T01:40:10;7;;;4.2;;
15498;SDS011;7851;52.260;6.030;2023-04-28T01:41:09;5.7;;;4.5;;
15498;SDS011;7851;52.260;6.030;2023-04-28T01:42:09;5.9;;;4.2;;
15498;SDS011;7851;52.260;6.030;2023-04-28T01:43:09;5.8;;;4.3;;
15498;SDS011;7851;52.260;6.030;2023-04-28T01:44:09;4.7;;;4.2;;
15498;SDS011;7851;52.260;6.030;2023-04-28T01:45:10;4.8;;;4.4;;
15498;SDS011;7851;52.260;6.030;2023-04-28T01:46:09;6.5;;;4.4;;
15498;SDS011;7851;52.260;6.030;2023-04-28T01:47:09;4.8;;;4.1;;
15498;SDS011;7851;52.260;6.030;2023-04-28T01:48:09;5.7;;;4.3;;
15498;SDS011;7851;52.260;6.030;2023-04-28T01:49:09;5.2;;;4.2;;
15498;SDS011;7851;52.260;6.030;2023-04-28T01:50:09;5.7;;;4.5;;
15498;SDS011;7851;52.260;6.030;2023-04-28T01:51:09;4.3;;;3.9;;
15498;SDS011;7851;52.260;6.030;2023-04-28T01:52:09;4.4;;;4;;
15498;SDS011;7851;52.260;6.030;2023-04-28T01:53:09;5.2;;;4.7;;
15498;SDS011;7851;52.260;6.030;2023-04-28T01:54:09;4.6;;;4.1;;
15498;SDS011;7851;52.260;6.030;2023-04-28T01:55:09;8.2;;;4.9;;
15498;SDS011;7851;52.260;6.030;2023-04-28T01:56:09;4.7;;;4.2;;
15498;SDS011;7851;52.260;6.030;2023-04-28T01:57:09;4.9;;;4.3;;
15498;SDS011;7851;52.260;6.030;2023-04-28T01:58:09;5.3;;;4.4;;
15498;SDS011;7851;52.260;6.030;2023-04-28T01:59:09;4.5;;;3.9;;
15498;SDS011;7851;52.260;6.030;2023-04-28T02:00:10;4.5;;;4.1;;
15498;SDS011;7851;52.260;6.030;2023-04-28T02:01:09;5.2;;;4.5;;
15498;SDS011;7851;52.260;6.030;2023-04-28T02:02:09;5;;;4.5;;
15498;SDS011;7851;52.260;6.030;2023-04-28T02:03:09;9.9;;;4.5;;
15498;SDS011;7851;52.260;6.030;2023-04-28T02:04:09;6;;;4.1;;
15498;SDS011;7851;52.260;6.030;2023-04-28T02:05:09;6.7;;;4.4;;
15498;SDS011;7851;52.260;6.030;2023-04-28T02:06:09;4.7;;;4.2;;
15498;SDS011;7851;52.260;6.030;2023-04-28T02:07:09;5.1;;;4.3;;
15498;SDS011;7851;52.260;6.030;2023-04-28T02:08:09;5.6;;;4.8;;
15498;SDS011;7851;52.260;6.030;2023-04-28T02:09:09;8.1;;;4.5;;
15498;SDS011;7851;52.260;6.030;2023-04-28T02:10:09;5.7;;;4.3;;
15498;SDS011;7851;52.260;6.030;2023-04-28T02:11:09;7;;;4.6;;
15498;SDS011;7851;52.260;6.030;2023-04-28T02:12:09;5.6;;;4.7;;
15498;SDS011;7851;52.260;6.030;2023-04-28T02:13:09;7.4;;;4.5;;
15498;SDS011;7851;52.260;6.030;2023-04-28T02:14:09;5.3;;;4.3;;
15498;SDS011;7851;52.260;6.030;2023-04-28T02:15:09;7.3;;;4.5;;
15498;SDS011;7851;52.260;6.030;2023-04-28T02:16:09;6.4;;;4.8;;
15498;SDS011;7851;52.260;6.030;2023-04-28T02:17:09;5.2;;;4.7;;
15498;SDS011;7851;52.260;6.030;2023-04-28T02:18:09;5.6;;;4.1;;
15498;SDS011;7851;52.260;6.030;2023-04-28T02:19:09;5.8;;;4.6;;
15498;SDS011;7851;52.260;6.030;2023-04-28T02:20:10;4.8;;;4.2;;
15498;SDS011;7851;52.260;6.030;2023-04-28T02:21:09;4.7;;;4.3;;
15498;SDS011;7851;52.260;6.030;2023-04-28T02:22:09;6.8;;;4.5;;
15498;SDS011;7851;52.260;6.030;2023-04-28T02:23:09;5.8;;;4.8;;
15498;SDS011;7851;52.260;6.030;2023-04-28T02:24:09;5.7;;;4.6;;
15498;SDS011;7851;52.260;6.030;2023-04-28T02:25:09;4.9;;;4.4;;
15498;SDS011;7851;52.260;6.030;2023-04-28T02:26:09;4.9;;;4.2;;
15498;SDS011;7851;52.260;6.030;2023-04-28T02:27:09;6.2;;;4.3;;
15498;SDS011;7851;52.260;6.030;2023-04-28T02:28:09;5.3;;;4.7;;
15498;SDS011;7851;52.260;6.030;2023-04-28T02:29:09;5.4;;;4.3;;
15498;SDS011;7851;52.260;6.030;2023-04-28T02:30:09;7.1;;;4.4;;
15498;SDS011;7851;52.260;6.030;2023-04-28T02:31:10;4.8;;;4.4;;
15498;SDS011;7851;52.260;6.030;2023-04-28T02:32:09;7.7;;;4.8;;
15498;SDS011;7851;52.260;6.030;2023-04-28T02:33:09;7.7;;;4.4;;
15498;SDS011;7851;52.260;6.030;2023-04-28T02:34:09;5.6;;;4.6;;
15498;SDS011;7851;52.260;6.030;2023-04-28T02:35:09;6.8;;;4.7;;
15498;SDS011;7851;52.260;6.030;2023-04-28T02:36:09;11;;;4.5;;
15498;SDS011;7851;52.260;6.030;2023-04-28T02:37:09;5.1;;;4.7;;
15498;SDS011;7851;52.260;6.030;2023-04-28T02:38:09;6.7;;;4.9;;
15498;SDS011;7851;52.260;6.030;2023-04-28T02:39:09;5.2;;;4.7;;
15498;SDS011;7851;52.260;6.030;2023-04-28T02:40:10;5.8;;;4.9;;
15498;SDS011;7851;52.260;6.030;2023-04-28T02:41:09;5.3;;;4.8;;
15498;SDS011;7851;52.260;6.030;2023-04-28T02:42:09;8.6;;;4.7;;
15498;SDS011;7851;52.260;6.030;2023-04-28T02:43:09;7.2;;;4.7;;
15498;SDS011;7851;52.260;6.030;2023-04-28T02:44:09;5.9;;;4.8;;
15498;SDS011;7851;52.260;6.030;2023-04-28T02:45:09;4.8;;;4.4;;
15498;SDS011;7851;52.260;6.030;2023-04-28T02:46:09;10.4;;;5.2;;
15498;SDS011;7851;52.260;6.030;2023-04-28T02:47:09;5.8;;;4.8;;
15498;SDS011;7851;52.260;6.030;2023-04-28T02:48:09;6.7;;;5;;
15498;SDS011;7851;52.260;6.030;2023-04-28T02:49:09;6.1;;;4.6;;
15498;SDS011;7851;52.260;6.030;2023-04-28T02:50:09;7.5;;;4.7;;
15498;SDS011;7851;52.260;6.030;2023-04-28T02:51:09;5.7;;;4.4;;
15498;SDS011;7851;52.260;6.030;2023-04-28T02:52:09;5.7;;;5.1;;
15498;SDS011;7851;52.260;6.030;2023-04-28T02:53:09;6.4;;;4.9;;
15498;SDS011;7851;52.260;6.030;2023-04-28T02:54:09;5.8;;;5.1;;
15498;SDS011;7851;52.260;6.030;2023-04-28T02:55:09;5.6;;;4.9;;
15498;SDS011;7851;52.260;6.030;2023-04-28T02:56:09;7;;;4.9;;
15498;SDS011;7851;52.260;6.030;2023-04-28T02:57:09;5.7;;;4.8;;
15498;SDS011;7851;52.260;6.030;2023-04-28T02:58:09;7.7;;;4.7;;
15498;SDS011;7851;52.260;6.030;2023-04-28T02:59:09;6.3;;;4.8;;
15498;SDS011;7851;52.260;6.030;2023-04-28T03:00:10;5.4;;;4.9;;
15498;SDS011;7851;52.260;6.030;2023-04-28T03:01:09;7.1;;;4.6;;
15498;SDS011;7851;52.260;6.030;2023-04-28T03:02:09;5.4;;;4.9;;
15498;SDS011;7851;52.260;6.030;2023-04-28T03:03:09;6.3;;;4.6;;
15498;SDS011;7851;52.260;6.030;2023-04-28T03:04:09;5.5;;;4.8;;
15498;SDS011;7851;52.260;6.030;2023-04-28T03:05:09;6;;;4.8;;
15498;SDS011;7851;52.260;6.030;2023-04-28T03:06:09;7.7;;;5.1;;
15498;SDS011;7851;52.260;6.030;2023-04-28T03:07:09;5.5;;;4.9;;
15498;SDS011;7851;52.260;6.030;2023-04-28T03:08:09;7.6;;;5.3;;
15498;SDS011;7851;52.260;6.030;2023-04-28T03:09:09;6.2;;;4.8;;
15498;SDS011;7851;52.260;6.030;2023-04-28T03:10:09;7.7;;;5;;
15498;SDS011;7851;52.260;6.030;2023-04-28T03:11:09;11.9;;;5.5;;
15498;SDS011;7851;52.260;6.030;2023-04-28T03:12:09;7;;;4.8;;
15498;SDS011;7851;52.260;6.030;2023-04-28T03:13:09;5.9;;;4.9;;
15498;SDS011;7851;52.260;6.030;2023-04-28T03:14:09;6.2;;;4.8;;
15498;SDS011;7851;52.260;6.030;2023-04-28T03:15:10;6.4;;;5.1;;
15498;SDS011;7851;52.260;6.030;2023-04-28T03:16:09;5.1;;;4.6;;
15498;SDS011;7851;52.260;6.030;2023-04-28T03:17:09;5.1;;;4.6;;
15498;SDS011;7851;52.260;6.030;2023-04-28T03:18:09;6;;;4.8;;
15498;SDS011;7851;52.260;6.030;2023-04-28T03:19:09;6.3;;;5.5;;
15498;SDS011;7851;52.260;6.030;2023-04-28T03:20:10;6.8;;;5.1;;
15498;SDS011;7851;52.260;6.030;2023-04-28T03:21:09;5.6;;;4.8;;
15498;SDS011;7851;52.260;6.030;2023-04-28T03:22:09;6.6;;;4.4;;
15498;SDS011;7851;52.260;6.030;2023-04-28T03:23:09;5.6;;;5;;
15498;SDS011;7851;52.260;6.030;2023-04-28T03:24:09;7;;;4.9;;
15498;SDS011;7851;52.260;6.030;2023-04-28T03:25:09;6.8;;;5.1;;
15498;SDS011;7851;52.260;6.030;2023-04-28T03:26:09;6.4;;;4.8;;
15498;SDS011;7851;52.260;6.030;2023-04-28T03:27:09;5.5;;;4.9;;
15498;SDS011;7851;52.260;6.030;2023-04-28T03:28:09;5.4;;;4.8;;
15498;SDS011;7851;52.260;6.030;2023-04-28T03:29:09;6.7;;;4.9;;
15498;SDS011;7851;52.260;6.030;2023-04-28T03:30:10;6.3;;;5.1;;
15498;SDS011;7851;52.260;6.030;2023-04-28T03:31:09;5.1;;;4.6;;
15498;SDS011;7851;52.260;6.030;2023-04-28T03:32:09;9;;;5;;
15498;SDS011;7851;52.260;6.030;2023-04-28T03:33:09;6.4;;;4.9;;
15498;SDS011;7851;52.260;6.030;2023-04-28T03:34:09;6.2;;;5;;
15498;SDS011;7851;52.260;6.030;2023-04-28T03:35:09;5.2;;;4.7;;
15498;SDS011;7851;52.260;6.030;2023-04-28T03:36:09;8;;;4.7;;
15498;SDS011;7851;52.260;6.030;2023-04-28T03:37:09;6.4;;;5.1;;
15498;SDS011;7851;52.260;6.030;2023-04-28T03:38:09;5.4;;;4.6;;
15498;SDS011;7851;52.260;6.030;2023-04-28T03:39:09;5.6;;;4.9;;
15498;SDS011;7851;52.260;6.030;2023-04-28T03:40:09;5.9;;;5.3;;
15498;SDS011;7851;52.260;6.030;2023-04-28T03:41:09;5.7;;;5.1;;
15498;SDS011;7851;52.260;6.030;2023-04-28T03:42:09;6;;;4.6;;
15498;SDS011;7851;52.260;6.030;2023-04-28T03:43:09;5.2;;;4.1;;
15498;SDS011;7851;52.260;6.030;2023-04-28T03:44:09;6.5;;;4.9;;
15498;SDS011;7851;52.260;6.030;2023-04-28T03:45:09;5.4;;;4.8;;
15498;SDS011;7851;52.260;6.030;2023-04-28T03:46:09;5.7;;;4.4;;
15498;SDS011;7851;52.260;6.030;2023-04-28T03:47:09;6.4;;;5;;
15498;SDS011;7851;52.260;6.030;2023-04-28T03:48:09;5.5;;;4.3;;
15498;SDS011;7851;52.260;6.030;2023-04-28T03:49:09;9.7;;;4.9;;
15498;SDS011;7851;52.260;6.030;2023-04-28T03:50:09;5.3;;;4.4;;
15498;SDS011;7851;52.260;6.030;2023-04-28T03:51:09;5.3;;;4.8;;
15498;SDS011;7851;52.260;6.030;2023-04-28T03:52:09;5.8;;;5.1;;
15498;SDS011;7851;52.260;6.030;2023-04-28T03:53:09;5.8;;;4.6;;
15498;SDS011;7851;52.260;6.030;2023-04-28T03:54:09;7.9;;;4.8;;
15498;SDS011;7851;52.260;6.030;2023-04-28T03:55:09;5.3;;;4.5;;
15498;SDS011;7851;52.260;6.030;2023-04-28T03:56:09;5.1;;;4.6;;
15498;SDS011;7851;52.260;6.030;2023-04-28T03:57:09;5.1;;;4.6;;
15498;SDS011;7851;52.260;6.030;2023-04-28T03:58:09;7.3;;;4.7;;
15498;SDS011;7851;52.260;6.030;2023-04-28T03:59:09;5.6;;;4.8;;
15498;SDS011;7851;52.260;6.030;2023-04-28T04:00:10;6;;;4.9;;
15498;SDS011;7851;52.260;6.030;2023-04-28T04:01:09;5.1;;;4.6;;
15498;SDS011;7851;52.260;6.030;2023-04-28T04:02:09;5.9;;;4.6;;
15498;SDS011;7851;52.260;6.030;2023-04-28T04:03:09;8;;;5.1;;
15498;SDS011;7851;52.260;6.030;2023-04-28T04:04:09;4.7;;;4.3;;
15498;SDS011;7851;52.260;6.030;2023-04-28T04:05:09;5;;;4.5;;
15498;SDS011;7851;52.260;6.030;2023-04-28T04:06:09;4.9;;;4.4;;
15498;SDS011;7851;52.260;6.030;2023-04-28T04:07:09;5.2;;;4.6;;
15498;SDS011;7851;52.260;6.030;2023-04-28T04:08:09;5.4;;;4.7;;
15498;SDS011;7851;52.260;6.030;2023-04-28T04:09:09;7.2;;;4.8;;
15498;SDS011;7851;52.260;6.030;2023-04-28T04:10:09;6;;;4.7;;
15498;SDS011;7851;52.260;6.030;2023-04-28T04:11:09;6.2;;;4.6;;
15498;SDS011;7851;52.260;6.030;2023-04-28T04:12:09;6.1;;;4.6;;
15498;SDS011;7851;52.260;6.030;2023-04-28T04:13:09;4.9;;;4.5;;
15498;SDS011;7851;52.260;6.030;2023-04-28T04:14:09;6;;;5.1;;
15498;SDS011;7851;52.260;6.030;2023-04-28T04:15:09;6.7;;;5.3;;
15498;SDS011;7851;52.260;6.030;2023-04-28T04:16:09;5.1;;;4.5;;
15498;SDS011;7851;52.260;6.030;2023-04-28T04:17:09;5.2;;;4.7;;
15498;SDS011;7851;52.260;6.030;2023-04-28T04:18:09;4.8;;;4.4;;
15498;SDS011;7851;52.260;6.030;2023-04-28T04:19:09;6.6;;;5;;
15498;SDS011;7851;52.260;6.030;2023-04-28T04:20:09;5.5;;;4.9;;
15498;SDS011;7851;52.260;6.030;2023-04-28T04:21:09;5.3;;;4.7;;
15498;SDS011;7851;52.260;6.030;2023-04-28T04:22:09;9.8;;;5;;
15498;SDS011;7851;52.260;6.030;2023-04-28T04:23:09;6.4;;;4.7;;
15498;SDS011;7851;52.260;6.030;2023-04-28T04:24:09;6.8;;;4.8;;
15498;SDS011;7851;52.260;6.030;2023-04-28T04:25:09;5.8;;;4.6;;
15498;SDS011;7851;52.260;6.030;2023-04-28T04:26:09;4.7;;;4.2;;
15498;SDS011;7851;52.260;6.030;2023-04-28T04:27:09;6.1;;;4.8;;
15498;SDS011;7851;52.260;6.030;2023-04-28T04:28:09;6.9;;;5;;
15498;SDS011;7851;52.260;6.030;2023-04-28T04:29:09;6;;;4.8;;
15498;SDS011;7851;52.260;6.030;2023-04-28T04:30:09;5.1;;;4.6;;
15498;SDS011;7851;52.260;6.030;2023-04-28T04:31:09;6.1;;;5;;
15498;SDS011;7851;52.260;6.030;2023-04-28T04:32:09;7.4;;;5.2;;
15498;SDS011;7851;52.260;6.030;2023-04-28T04:33:09;5.4;;;4.8;;
15498;SDS011;7851;52.260;6.030;2023-04-28T04:34:09;7.4;;;5.1;;
15498;SDS011;7851;52.260;6.030;2023-04-28T04:35:09;8.2;;;5.1;;
15498;SDS011;7851;52.260;6.030;2023-04-28T04:36:09;7.2;;;4.9;;
15498;SDS011;7851;52.260;6.030;2023-04-28T04:37:09;4.9;;;4.4;;
15498;SDS011;7851;52.260;6.030;2023-04-28T04:38:09;5.6;;;4.5;;
15498;SDS011;7851;52.260;6.030;2023-04-28T04:39:09;5.7;;;4.6;;
15498;SDS011;7851;52.260;6.030;2023-04-28T04:40:10;6.5;;;4.8;;
15498;SDS011;7851;52.260;6.030;2023-04-28T04:41:09;5.7;;;4.6;;
15498;SDS011;7851;52.260;6.030;2023-04-28T04:42:09;5.3;;;4.5;;
15498;SDS011;7851;52.260;6.030;2023-04-28T04:43:09;11.6;;;4.8;;
15498;SDS011;7851;52.260;6.030;2023-04-28T04:44:09;4.4;;;4;;
15498;SDS011;7851;52.260;6.030;2023-04-28T04:45:09;7;;;4.3;;
15498;SDS011;7851;52.260;6.030;2023-04-28T04:46:09;5.5;;;4.3;;
15498;SDS011;7851;52.260;6.030;2023-04-28T04:47:09;5.5;;;4.5;;
15498;SDS011;7851;52.260;6.030;2023-04-28T04:48:09;5.6;;;4.3;;
15498;SDS011;7851;52.260;6.030;2023-04-28T04:49:09;6.1;;;4.3;;
15498;SDS011;7851;52.260;6.030;2023-04-28T04:50:09;4.8;;;4.3;;
15498;SDS011;7851;52.260;6.030;2023-04-28T04:51:09;6.4;;;4.4;;
15498;SDS011;7851;52.260;6.030;2023-04-28T04:52:09;6.1;;;4.3;;
15498;SDS011;7851;52.260;6.030;2023-04-28T04:53:09;4.9;;;4.4;;
15498;SDS011;7851;52.260;6.030;2023-04-28T04:54:09;6.4;;;4.6;;
15498;SDS011;7851;52.260;6.030;2023-04-28T04:55:09;6.7;;;4.8;;
15498;SDS011;7851;52.260;6.030;2023-04-28T04:56:09;5.2;;;4.5;;
15498;SDS011;7851;52.260;6.030;2023-04-28T04:57:09;5.2;;;4.7;;
15498;SDS011;7851;52.260;6.030;2023-04-28T04:58:09;6.2;;;5.2;;
15498;SDS011;7851;52.260;6.030;2023-04-28T04:59:09;5.5;;;4.6;;
15498;SDS011;7851;52.260;6.030;2023-04-28T05:00:10;5.3;;;4.7;;
15498;SDS011;7851;52.260;6.030;2023-04-28T05:01:09;5.9;;;4.1;;
15498;SDS011;7851;52.260;6.030;2023-04-28T05:02:09;5.5;;;4.2;;
15498;SDS011;7851;52.260;6.030;2023-04-28T05:03:09;6.9;;;4.5;;
15498;SDS011;7851;52.260;6.030;2023-04-28T05:04:09;6.8;;;4.7;;
15498;SDS011;7851;52.260;6.030;2023-04-28T05:05:09;5.3;;;4.2;;
15498;SDS011;7851;52.260;6.030;2023-04-28T05:06:09;4.6;;;4.2;;
15498;SDS011;7851;52.260;6.030;2023-04-28T05:07:09;8.4;;;4.6;;
15498;SDS011;7851;52.260;6.030;2023-04-28T05:08:09;5;;;4.4;;
15498;SDS011;7851;52.260;6.030;2023-04-28T05:09:09;9.8;;;4.7;;
15498;SDS011;7851;52.260;6.030;2023-04-28T05:10:09;5.9;;;4.3;;
15498;SDS011;7851;52.260;6.030;2023-04-28T05:11:09;5.9;;;4.5;;
15498;SDS011;7851;52.260;6.030;2023-04-28T05:12:09;7.7;;;4.5;;
15498;SDS011;7851;52.260;6.030;2023-04-28T05:13:09;4.8;;;4.3;;
15498;SDS011;7851;52.260;6.030;2023-04-28T05:14:09;5.5;;;4.4;;
15498;SDS011;7851;52.260;6.030;2023-04-28T05:15:09;6.4;;;4.6;;
15498;SDS011;7851;52.260;6.030;2023-04-28T05:16:09;5.2;;;4.7;;
15498;SDS011;7851;52.260;6.030;2023-04-28T05:17:09;5.7;;;4.4;;
15498;SDS011;7851;52.260;6.030;2023-04-28T05:18:09;5.3;;;4.3;;
15498;SDS011;7851;52.260;6.030;2023-04-28T05:19:09;7.1;;;4.5;;
15498;SDS011;7851;52.260;6.030;2023-04-28T05:20:09;7.2;;;4.4;;
15498;SDS011;7851;52.260;6.030;2023-04-28T05:21:09;6.5;;;4.4;;
15498;SDS011;7851;52.260;6.030;2023-04-28T05:22:09;4.6;;;4.1;;
15498;SDS011;7851;52.260;6.030;2023-04-28T05:23:09;5.3;;;4.6;;
15498;SDS011;7851;52.260;6.030;2023-04-28T05:24:09;5.5;;;4.5;;
15498;SDS011;7851;52.260;6.030;2023-04-28T05:25:09;5.7;;;4.4;;
15498;SDS011;7851;52.260;6.030;2023-04-28T05:26:09;6.2;;;4.7;;
15498;SDS011;7851;52.260;6.030;2023-04-28T05:27:09;5.8;;;4.7;;
15498;SDS011;7851;52.260;6.030;2023-04-28T05:28:09;8.4;;;4.5;;
15498;SDS011;7851;52.260;6.030;2023-04-28T05:29:09;5.7;;;4.4;;
15498;SDS011;7851;52.260;6.030;2023-04-28T05:30:09;6.1;;;4.1;;
15498;SDS011;7851;52.260;6.030;2023-04-28T05:31:09;4.9;;;4.2;;
15498;SDS011;7851;52.260;6.030;2023-04-28T05:32:09;9.2;;;4.5;;
15498;SDS011;7851;52.260;6.030;2023-04-28T05:33:09;5.3;;;4.4;;
15498;SDS011;7851;52.260;6.030;2023-04-28T05:34:09;7.1;;;4.8;;
15498;SDS011;7851;52.260;6.030;2023-04-28T05:35:09;6;;;4.3;;
15498;SDS011;7851;52.260;6.030;2023-04-28T05:36:09;6.5;;;4.5;;
15498;SDS011;7851;52.260;6.030;2023-04-28T05:37:09;6.1;;;4.3;;
15498;SDS011;7851;52.260;6.030;2023-04-28T05:38:09;4.9;;;4.4;;
15498;SDS011;7851;52.260;6.030;2023-04-28T05:39:09;6.4;;;4.7;;
15498;SDS011;7851;52.260;6.030;2023-04-28T05:40:09;8.4;;;4.6;;
15498;SDS011;7851;52.260;6.030;2023-04-28T05:41:09;6.6;;;4.5;;
15498;SDS011;7851;52.260;6.030;2023-04-28T05:42:09;5.6;;;4.3;;
15498;SDS011;7851;52.260;6.030;2023-04-28T05:43:09;5;;;4.3;;
15498;SDS011;7851;52.260;6.030;2023-04-28T05:44:09;6.5;;;4.7;;
15498;SDS011;7851;52.260;6.030;2023-04-28T05:45:10;7.6;;;4.4;;
15498;SDS011;7851;52.260;6.030;2023-04-28T05:46:09;6.7;;;4.7;;
15498;SDS011;7851;52.260;6.030;2023-04-28T05:47:09;5.8;;;4.6;;
15498;SDS011;7851;52.260;6.030;2023-04-28T05:48:09;6.5;;;4.7;;
15498;SDS011;7851;52.260;6.030;2023-04-28T05:49:09;5.6;;;4.7;;
15498;SDS011;7851;52.260;6.030;2023-04-28T05:50:09;5.5;;;4.5;;
15498;SDS011;7851;52.260;6.030;2023-04-28T05:51:09;5.4;;;4.4;;
15498;SDS011;7851;52.260;6.030;2023-04-28T05:52:09;11.2;;;4.5;;
15498;SDS011;7851;52.260;6.030;2023-04-28T05:53:09;6.8;;;4.8;;
15498;SDS011;7851;52.260;6.030;2023-04-28T05:54:09;8.1;;;5.2;;
15498;SDS011;7851;52.260;6.030;2023-04-28T05:55:09;5.5;;;4.5;;
15498;SDS011;7851;52.260;6.030;2023-04-28T05:56:09;4.8;;;4.4;;
15498;SDS011;7851;52.260;6.030;2023-04-28T05:57:09;6.2;;;5;;
15498;SDS011;7851;52.260;6.030;2023-04-28T05:58:09;6.3;;;4.8;;
15498;SDS011;7851;52.260;6.030;2023-04-28T05:59:09;5.3;;;4.8;;
15498;SDS011;7851;52.260;6.030;2023-04-28T06:00:10;6.5;;;4.9;;
15498;SDS011;7851;52.260;6.030;2023-04-28T06:01:09;5.8;;;4.5;;
15498;SDS011;7851;52.260;6.030;2023-04-28T06:02:09;5.5;;;4.5;;
15498;SDS011;7851;52.260;6.030;2023-04-28T06:03:09;8;;;4.8;;
15498;SDS011;7851;52.260;6.030;2023-04-28T06:04:09;4.7;;;4.2;;
15498;SDS011;7851;52.260;6.030;2023-04-28T06:05:09;5.3;;;4.6;;
15498;SDS011;7851;52.260;6.030;2023-04-28T06:06:09;5.9;;;4.7;;
15498;SDS011;7851;52.260;6.030;2023-04-28T06:07:09;5.2;;;4.7;;
15498;SDS011;7851;52.260;6.030;2023-04-28T06:08:09;5.5;;;5;;
15498;SDS011;7851;52.260;6.030;2023-04-28T06:09:09;6.6;;;4.8;;
15498;SDS011;7851;52.260;6.030;2023-04-28T06:10:09;7.3;;;4.8;;
15498;SDS011;7851;52.260;6.030;2023-04-28T06:11:09;6.3;;;5.1;;
15498;SDS011;7851;52.260;6.030;2023-04-28T06:12:09;8;;;5.3;;
15498;SDS011;7851;52.260;6.030;2023-04-28T06:13:09;6.8;;;5.5;;
15498;SDS011;7851;52.260;6.030;2023-04-28T06:14:09;5.3;;;4.8;;
15498;SDS011;7851;52.260;6.030;2023-04-28T06:15:10;5.3;;;4.8;;
15498;SDS011;7851;52.260;6.030;2023-04-28T06:16:09;5.3;;;4.7;;
15498;SDS011;7851;52.260;6.030;2023-04-28T06:17:09;7.6;;;5;;
15498;SDS011;7851;52.260;6.030;2023-04-28T06:18:09;5.9;;;5.2;;
15498;SDS011;7851;52.260;6.030;2023-04-28T06:19:09;9;;;5.4;;
15498;SDS011;7851;52.260;6.030;2023-04-28T06:20:10;5.8;;;5.2;;